createdAt,value
2022-10-01T00:02:25.435Z,9.77
2022-10-01T00:04:55.372Z,10.32
2022-10-01T00:07:23.029Z,9.48
2022-10-01T00:09:50.764Z,10.77
2022-10-01T00:12:17.513Z,10.40
2022-10-01T00:14:46.312Z,9.98
2022-10-01T00:17:13.092Z,10.88
2022-10-01T00:19:40.503Z,10.10
2022-10-01T00:22:18.945Z,11.38
2022-10-01T00:24:55.323Z,10.85
2022-10-01T00:27:22.054Z,11.48
2022-10-01T00:29:49.179Z,10.55
2022-10-01T00:32:16.011Z,12.07
2022-10-01T00:34:42.927Z,12.38
2022-10-01T00:37:12.409Z,11.05
2022-10-01T00:39:39.595Z,11.07
2022-10-01T00:42:24.116Z,9.75
2022-10-01T00:44:54.055Z,10.02
2022-10-01T00:47:28.753Z,9.95
2022-10-01T00:50:01.361Z,10.68
2022-10-01T00:52:30.882Z,10.50
2022-10-01T00:55:28.846Z,10.02
2022-10-01T00:57:56.502Z,10.10
2022-10-01T01:00:23.385Z,9.88
2022-10-01T01:02:52.743Z,10.52
2022-10-01T01:05:20.257Z,9.85
2022-10-01T01:07:51.073Z,10.13
2022-10-01T01:10:35.160Z,9.25
2022-10-01T01:13:09.048Z,9.40
2022-10-01T01:15:55.340Z,10.38
2022-10-01T01:18:33.594Z,10.30
2022-10-01T01:21:21.223Z,10.00
2022-10-01T01:24:11.734Z,9.90
2022-10-01T01:26:54.490Z,9.68
2022-10-01T01:29:34.688Z,10.27
2022-10-01T01:32:09.435Z,10.98
2022-10-01T01:34:41.578Z,10.25
2022-10-01T01:38:09.247Z,10.48
2022-10-01T01:40:37.470Z,10.32
2022-10-01T01:43:06.553Z,11.02
2022-10-01T01:45:35.567Z,10.70
2022-10-01T01:48:03.062Z,9.93
2022-10-01T01:50:34.431Z,11.77
2022-10-01T01:53:02.138Z,10.55
2022-10-01T01:55:29.965Z,10.68
2022-10-01T01:57:57.118Z,11.43
2022-10-01T02:00:24.463Z,10.30
2022-10-01T02:02:54.450Z,11.10
2022-10-01T02:05:26.243Z,11.27
2022-10-01T02:08:35.805Z,11.77
2022-10-01T02:11:20.832Z,11.20
2022-10-01T02:14:02.750Z,11.73
2022-10-01T02:16:56.870Z,11.43
2022-10-01T02:19:33.647Z,12.25
2022-10-01T02:22:18.594Z,12.52
2022-10-01T02:24:56.980Z,10.27
2022-10-01T02:27:26.647Z,8.30
2022-10-01T02:29:55.311Z,8.57
2022-10-01T02:32:22.200Z,8.45
2022-10-01T02:34:50.439Z,11.05
2022-10-01T02:37:20.622Z,10.77
2022-10-01T02:39:48.058Z,11.13
2022-10-01T02:42:52.412Z,10.50
2022-10-01T02:45:22.818Z,11.45
2022-10-01T02:47:56.197Z,11.05
2022-10-01T02:50:24.508Z,11.55
2022-10-01T02:52:59.207Z,11.18
2022-10-01T02:57:56.635Z,10.10
2022-10-01T03:00:26.980Z,10.95
2022-10-01T03:02:55.018Z,9.40
2022-10-01T03:05:22.565Z,5.53
2022-10-01T03:07:50.367Z,6.15
2022-10-01T03:10:17.192Z,6.60
2022-10-01T03:12:46.566Z,7.05
2022-10-01T03:15:14.470Z,7.10
2022-10-01T03:17:41.135Z,7.05
2022-10-01T03:20:08.596Z,7.32
2022-10-01T03:22:35.464Z,9.30
2022-10-01T03:26:01.283Z,6.78
2022-10-01T03:28:28.702Z,5.30
2022-10-01T03:31:05.291Z,5.72
2022-10-01T03:33:31.919Z,6.05
2022-10-01T03:35:58.566Z,5.63
2022-10-01T03:38:25.193Z,7.93
2022-10-01T03:40:51.760Z,5.70
2022-10-01T03:43:18.657Z,5.63
2022-10-01T03:45:45.255Z,5.72
2022-10-01T03:48:11.955Z,6.57
2022-10-01T03:50:39.097Z,9.77
2022-10-01T03:53:06.558Z,9.00
2022-10-01T03:55:33.133Z,7.00
2022-10-01T03:57:59.908Z,4.55
2022-10-01T04:00:26.472Z,5.10
2022-10-01T04:02:54.468Z,6.30
2022-10-01T04:05:21.848Z,6.90
2022-10-01T04:07:50.299Z,8.68
2022-10-01T04:10:16.986Z,8.27
2022-10-01T04:12:44.239Z,8.55
2022-10-01T04:15:10.914Z,7.95
2022-10-01T04:17:37.560Z,8.25
2022-10-01T04:20:04.389Z,4.68
2022-10-01T04:22:31.314Z,4.85
2022-10-01T04:24:57.940Z,5.68
2022-10-01T04:27:24.904Z,6.20
2022-10-01T04:29:53.498Z,6.30
2022-10-01T04:32:21.539Z,6.38
2022-10-01T04:34:54.245Z,7.05
2022-10-01T04:37:22.392Z,7.75
2022-10-01T04:39:49.010Z,7.03
2022-10-01T04:42:15.727Z,8.18
2022-10-01T04:44:42.321Z,7.80
2022-10-01T04:47:09.207Z,8.70
2022-10-01T04:49:36.123Z,8.60
2022-10-01T04:52:03.389Z,9.80
2022-10-01T04:54:30.666Z,11.98
2022-10-01T04:56:58.266Z,9.93
2022-10-01T04:59:25.755Z,9.68
2022-10-01T05:01:52.820Z,9.23
2022-10-01T05:04:23.875Z,8.55
2022-10-01T05:06:52.435Z,10.00
2022-10-01T05:09:19.782Z,9.57
2022-10-01T05:11:46.388Z,7.50
2022-10-01T05:18:08.155Z,10.02
2022-10-01T05:20:35.152Z,9.85
2022-10-01T05:23:01.794Z,9.07
2022-10-01T05:25:28.389Z,6.95
2022-10-01T05:28:05.008Z,7.00
2022-10-01T05:30:33.007Z,7.47
2022-10-01T05:33:01.680Z,7.45
2022-10-01T05:35:28.900Z,6.85
2022-10-01T05:38:02.761Z,8.75
2022-10-01T05:40:30.106Z,8.20
2022-10-01T05:42:58.405Z,9.55
2022-10-01T05:45:30.116Z,7.97
2022-10-01T05:48:01.135Z,7.97
2022-10-01T05:50:32.530Z,8.95
2022-10-01T05:53:00.121Z,9.57
2022-10-01T05:55:31.788Z,8.65
2022-10-01T05:58:03.042Z,9.90
2022-10-01T06:00:30.669Z,10.60
2022-10-01T06:03:01.333Z,9.80
2022-10-01T06:05:29.857Z,9.30
2022-10-01T06:07:56.510Z,9.93
2022-10-01T06:10:24.905Z,9.07
2022-10-01T06:12:51.893Z,9.60
2022-10-01T06:15:18.634Z,9.18
2022-10-01T06:17:45.548Z,8.68
2022-10-01T06:20:15.232Z,9.00
2022-10-01T06:22:43.138Z,7.95
2022-10-01T06:25:11.604Z,7.85
2022-10-01T06:27:39.143Z,8.52
2022-10-01T06:30:06.597Z,8.75
2022-10-01T06:32:35.061Z,7.90
2022-10-01T06:35:02.906Z,7.68
2022-10-01T06:37:29.883Z,7.65
2022-10-01T06:39:56.733Z,8.05
2022-10-01T06:42:28.656Z,8.75
2022-10-01T06:44:55.320Z,7.95
2022-10-01T06:47:21.920Z,9.15
2022-10-01T06:49:48.560Z,9.63
2022-10-01T06:52:34.797Z,9.10
2022-10-01T06:55:02.006Z,9.52
2022-10-01T06:57:29.068Z,9.15
2022-10-01T06:59:55.861Z,8.30
2022-10-01T07:02:28.046Z,8.60
2022-10-01T07:05:00.145Z,8.40
2022-10-01T07:07:31.052Z,7.95
2022-10-01T07:09:59.085Z,7.90
2022-10-01T07:12:27.071Z,7.40
2022-10-01T07:14:54.651Z,8.48
2022-10-01T07:17:22.209Z,7.07
2022-10-01T07:19:48.901Z,7.32
2022-10-01T07:22:15.516Z,7.80
2022-10-01T07:24:42.215Z,8.13
2022-10-01T07:27:08.768Z,7.32
2022-10-01T07:29:35.728Z,7.97
2022-10-01T07:32:04.073Z,7.43
2022-10-01T07:34:33.625Z,7.57
2022-10-01T07:37:00.778Z,7.72
2022-10-01T07:39:27.428Z,7.70
2022-10-01T07:41:54.098Z,7.03
2022-10-01T07:44:21.252Z,6.68
2022-10-01T07:47:39.399Z,7.50
2022-10-01T07:50:07.056Z,7.45
2022-10-01T07:52:34.259Z,6.55
2022-10-01T07:55:01.748Z,6.63
2022-10-01T07:57:28.667Z,5.90
2022-10-01T07:59:56.195Z,6.10
2022-10-01T08:02:23.964Z,6.00
2022-10-01T08:05:09.484Z,6.40
2022-10-01T08:08:05.652Z,5.50
2022-10-01T08:13:04.704Z,5.35
2022-10-01T08:15:32.104Z,4.80
2022-10-01T08:18:02.157Z,5.18
2022-10-01T08:20:28.922Z,5.18
2022-10-01T08:23:02.073Z,4.45
2022-10-01T08:25:28.707Z,5.10
2022-10-01T08:27:55.301Z,4.88
2022-10-01T08:30:22.624Z,3.78
2022-10-01T08:32:54.446Z,4.60
2022-10-01T08:35:21.168Z,4.13
2022-10-01T08:37:48.389Z,3.85
2022-10-01T08:40:15.460Z,3.95
2022-10-01T08:42:50.054Z,3.80
2022-10-01T08:45:23.584Z,4.13
2022-10-01T08:51:17.093Z,3.63
2022-10-01T08:54:09.198Z,3.80
2022-10-01T08:56:40.004Z,4.43
2022-10-01T08:59:36.288Z,3.97
2022-10-01T09:02:29.013Z,3.30
2022-10-01T09:05:02.525Z,3.55
2022-10-01T09:07:32.261Z,3.22
2022-10-01T09:10:04.172Z,2.95
2022-10-01T09:13:31.717Z,3.38
2022-10-01T09:16:16.606Z,3.13
